createdAt,value
2023-02-14T00:00:01.511Z,15.80
2023-02-14T00:01:01.480Z,14.20
2023-02-14T00:02:01.675Z,17.70
2023-02-14T00:03:01.499Z,18.80
2023-02-14T00:04:01.512Z,18.70
2023-02-14T00:05:01.456Z,16.80
2023-02-14T00:06:01.457Z,18.00
2023-02-14T00:07:01.448Z,18.50
2023-02-14T00:08:01.432Z,15.90
2023-02-14T00:09:01.498Z,16.40
2023-02-14T00:10:01.419Z,15.90
2023-02-14T00:11:01.408Z,17.30
2023-02-14T00:12:01.426Z,17.60
2023-02-14T00:13:01.440Z,16.90
2023-02-14T00:14:01.446Z,16.60
2023-02-14T00:15:01.383Z,16.60
2023-02-14T00:16:01.395Z,17.70
2023-02-14T00:17:01.376Z,18.00
2023-02-14T00:18:01.358Z,18.80
2023-02-14T00:19:01.381Z,18.40
2023-02-14T00:20:01.355Z,17.30
2023-02-14T00:21:01.336Z,16.50
2023-02-14T00:22:01.322Z,17.50
2023-02-14T00:23:01.307Z,16.70
2023-02-14T00:24:02.344Z,16.50
2023-02-14T00:25:01.306Z,15.30
2023-02-14T00:26:01.310Z,16.70
2023-02-14T00:27:01.283Z,17.40
2023-02-14T00:28:01.286Z,17.40
2023-02-14T00:29:01.299Z,17.80
2023-02-14T00:30:01.537Z,18.70
2023-02-14T00:31:01.604Z,18.00
2023-02-14T00:32:01.302Z,17.30
2023-02-14T00:33:01.243Z,17.70
2023-02-14T00:34:01.234Z,17.40
2023-02-14T00:35:01.258Z,13.90
2023-02-14T00:36:01.231Z,14.50
2023-02-14T00:37:01.230Z,13.90
2023-02-14T00:38:01.201Z,14.60
2023-02-14T00:39:01.315Z,15.50
2023-02-14T00:40:01.213Z,18.90
2023-02-14T00:41:01.310Z,19.80
2023-02-14T00:42:01.188Z,18.20
2023-02-14T00:43:01.207Z,17.30
2023-02-14T00:44:01.168Z,16.90
2023-02-14T00:45:01.184Z,20.00
2023-02-14T00:46:01.204Z,17.40
2023-02-14T00:47:01.146Z,18.20
2023-02-14T00:48:01.136Z,18.60
2023-02-14T00:49:01.125Z,19.90
2023-02-14T00:50:01.136Z,18.50
2023-02-14T00:51:01.301Z,18.40
2023-02-14T00:52:01.098Z,20.20
2023-02-14T00:53:01.092Z,22.00
2023-02-14T00:54:01.073Z,22.60
2023-02-14T00:55:01.107Z,20.90
2023-02-14T00:56:01.046Z,20.50
2023-02-14T00:57:02.059Z,19.90
2023-02-14T00:58:01.049Z,19.60
2023-02-14T00:59:01.063Z,19.50
2023-02-14T01:00:01.060Z,19.10
2023-02-14T01:01:01.456Z,21.10
2023-02-14T01:02:01.033Z,20.50
2023-02-14T01:03:01.028Z,21.00
2023-02-14T01:04:01.012Z,20.10
2023-02-14T01:05:01.029Z,20.00
2023-02-14T01:06:00.993Z,24.50
2023-02-14T01:07:01.555Z,26.50
2023-02-14T01:08:00.986Z,25.90
2023-02-14T01:09:01.026Z,22.60
2023-02-14T01:10:01.218Z,21.70
2023-02-14T01:11:01.382Z,21.10
2023-02-14T01:12:00.959Z,20.60
2023-02-14T01:13:00.938Z,20.80
2023-02-14T01:14:00.931Z,19.60
2023-02-14T01:15:00.949Z,19.30
2023-02-14T01:16:00.937Z,18.30
2023-02-14T01:17:00.924Z,18.20
2023-02-14T01:18:00.896Z,19.10
2023-02-14T01:19:00.907Z,18.90
2023-02-14T01:20:01.118Z,17.50
2023-02-14T01:21:01.206Z,18.40
2023-02-14T01:22:00.873Z,18.10
2023-02-14T01:23:00.860Z,18.90
2023-02-14T01:24:00.853Z,18.70
2023-02-14T01:25:00.865Z,18.80
2023-02-14T01:26:00.837Z,19.50
2023-02-14T01:27:00.829Z,19.10
2023-02-14T01:28:00.828Z,19.30
2023-02-14T01:29:00.817Z,19.80
2023-02-14T01:30:00.877Z,17.60
2023-02-14T01:31:01.205Z,19.30
2023-02-14T01:32:00.814Z,18.90
2023-02-14T01:33:00.778Z,18.30
2023-02-14T01:34:00.835Z,18.20
2023-02-14T01:35:00.845Z,18.70
2023-02-14T01:36:00.766Z,19.60
2023-02-14T01:37:00.786Z,18.80
2023-02-14T01:38:00.739Z,19.10
2023-02-14T01:39:00.796Z,18.70
2023-02-14T01:40:01.017Z,18.90
2023-02-14T01:41:01.089Z,18.50
2023-02-14T01:42:00.712Z,19.40
2023-02-14T01:43:00.698Z,19.40
2023-02-14T01:44:02.679Z,19.20
2023-02-14T01:45:00.732Z,20.00
2023-02-14T01:46:00.739Z,19.00
2023-02-14T01:47:00.671Z,18.60
2023-02-14T01:48:00.664Z,19.40
2023-02-14T01:49:00.660Z,17.50
2023-02-14T01:50:00.718Z,18.00
2023-02-14T01:51:01.041Z,18.80
2023-02-14T01:52:03.065Z,18.90
2023-02-14T01:53:00.641Z,19.50
2023-02-14T01:54:00.636Z,19.60
2023-02-14T01:55:00.635Z,19.80
2023-02-14T01:56:00.606Z,19.90
2023-02-14T01:57:00.607Z,20.30
2023-02-14T01:58:00.601Z,19.50
2023-02-14T01:59:00.590Z,20.30
2023-02-14T02:00:00.630Z,19.50
2023-02-14T02:01:01.095Z,19.80
2023-02-14T02:02:00.596Z,20.40
2023-02-14T02:03:00.560Z,20.10
2023-02-14T02:04:00.554Z,19.00
2023-02-14T02:05:00.574Z,17.40
2023-02-14T02:06:00.528Z,18.00
2023-02-14T02:07:00.542Z,17.20
2023-02-14T02:08:00.515Z,15.70
2023-02-14T02:09:00.535Z,15.60
2023-02-14T02:10:00.527Z,16.60
2023-02-14T02:11:00.797Z,18.40
2023-02-14T02:12:00.484Z,24.40
2023-02-14T02:13:00.485Z,24.00
2023-02-14T02:14:00.469Z,21.50
2023-02-14T02:15:00.495Z,21.80
2023-02-14T02:16:00.460Z,21.50
2023-02-14T02:17:00.505Z,21.30
2023-02-14T02:18:00.440Z,20.40
2023-02-14T02:19:00.430Z,22.80
2023-02-14T02:20:00.478Z,22.80
2023-02-14T02:21:00.733Z,22.80
2023-02-14T02:22:00.421Z,22.00
2023-02-14T02:23:00.428Z,22.00
2023-02-14T02:24:00.401Z,22.90
2023-02-14T02:25:00.422Z,25.70
2023-02-14T02:26:00.383Z,25.40
2023-02-14T02:27:00.376Z,27.20
2023-02-14T02:28:00.366Z,27.40
2023-02-14T02:29:00.357Z,27.70
2023-02-14T02:30:00.390Z,27.80
2023-02-14T02:31:00.913Z,32.40
2023-02-14T02:32:00.571Z,30.20
2023-02-14T02:33:00.319Z,32.80
2023-02-14T02:34:00.317Z,31.80
2023-02-14T02:35:00.314Z,38.30
2023-02-14T02:36:00.326Z,34.30
2023-02-14T02:37:00.391Z,34.90
2023-02-14T02:38:00.305Z,34.90
2023-02-14T02:39:00.273Z,35.10
2023-02-14T02:40:00.295Z,26.40
2023-02-14T02:41:00.640Z,29.50
2023-02-14T02:42:00.272Z,29.70
2023-02-14T02:43:00.251Z,27.10
2023-02-14T02:44:01.180Z,27.90
2023-02-14T02:45:00.252Z,30.20
2023-02-14T02:46:00.355Z,31.40
2023-02-14T02:47:00.251Z,28.00
2023-02-14T02:48:00.220Z,29.90
2023-02-14T02:49:00.205Z,32.20
2023-02-14T02:50:00.192Z,30.70
2023-02-14T02:51:00.536Z,34.70
2023-02-14T02:52:00.179Z,32.70
2023-02-14T02:53:00.165Z,36.50
2023-02-14T02:54:00.178Z,29.70
2023-02-14T02:55:00.161Z,36.90
2023-02-14T02:56:00.169Z,33.90
2023-02-14T02:57:00.141Z,32.70
2023-02-14T02:58:00.124Z,27.40
2023-02-14T02:59:00.129Z,33.20
2023-02-14T03:00:00.111Z,26.40
2023-02-14T03:01:00.396Z,29.10
2023-02-14T03:02:00.144Z,25.80
2023-02-14T03:03:00.119Z,30.70
2023-02-14T03:04:00.114Z,33.70
2023-02-14T03:05:00.103Z,33.00
2023-02-14T03:06:00.110Z,27.30
2023-02-14T03:07:00.065Z,32.60
2023-02-14T03:08:00.069Z,28.00
2023-02-14T03:09:00.109Z,27.20
2023-02-14T03:10:00.045Z,26.70
2023-02-14T03:11:00.322Z,29.50
2023-02-14T03:12:00.020Z,27.00
2023-02-14T03:13:00.019Z,27.20
2023-02-14T03:14:00.009Z,34.10
2023-02-14T03:15:00.002Z,28.50
2023-02-14T03:16:00.133Z,27.00
2023-02-14T03:16:59.985Z,26.30
2023-02-14T03:17:59.971Z,24.40
2023-02-14T03:18:59.963Z,23.40
2023-02-14T03:19:59.974Z,23.80
2023-02-14T03:21:00.303Z,26.30
2023-02-14T03:21:59.977Z,24.80
2023-02-14T03:22:59.941Z,25.30
2023-02-14T03:23:59.924Z,24.90
2023-02-14T03:24:59.913Z,23.70
2023-02-14T03:25:59.908Z,22.90
2023-02-14T03:26:59.930Z,24.10
2023-02-14T03:27:59.896Z,28.00
2023-02-14T03:28:59.888Z,26.90
2023-02-14T03:29:59.895Z,26.00
2023-02-14T03:31:00.256Z,24.90
2023-02-14T03:32:00.006Z,27.30
2023-02-14T03:32:59.849Z,26.40
2023-02-14T03:33:59.854Z,29.70
2023-02-14T03:34:59.839Z,28.50
2023-02-14T03:35:59.834Z,30.20
2023-02-14T03:36:59.855Z,30.80
2023-02-14T03:37:59.814Z,29.80
2023-02-14T03:38:59.813Z,31.90
2023-02-14T03:39:59.830Z,23.90
2023-02-14T03:41:00.077Z,35.70
2023-02-14T03:41:59.811Z,38.80
2023-02-14T03:42:59.781Z,27.20
2023-02-14T03:43:59.772Z,21.80
2023-02-14T03:44:59.766Z,21.30
2023-02-14T03:45:59.833Z,18.90
2023-02-14T03:46:59.770Z,18.50
2023-02-14T03:47:59.733Z,19.00
2023-02-14T03:48:59.727Z,20.10
2023-02-14T03:49:59.728Z,18.70
2023-02-14T03:51:00.008Z,18.50
2023-02-14T03:51:59.732Z,17.40
2023-02-14T03:52:59.713Z,20.90
2023-02-14T03:53:59.936Z,19.60
2023-02-14T03:54:59.693Z,18.00
2023-02-14T03:55:59.680Z,17.00
2023-02-14T03:56:59.696Z,17.20
2023-02-14T03:57:59.662Z,18.10
2023-02-14T03:58:59.657Z,30.30
2023-02-14T03:59:59.923Z,29.90
2023-02-14T04:00:59.972Z,29.80
2023-02-14T04:01:59.791Z,28.40
2023-02-14T04:02:59.833Z,37.90
2023-02-14T04:03:59.617Z,27.80
2023-02-14T04:04:59.633Z,25.70
2023-02-14T04:05:59.599Z,21.80
2023-02-14T04:06:59.623Z,24.10
2023-02-14T04:07:59.590Z,19.90
2023-02-14T04:08:59.606Z,18.90
2023-02-14T04:09:59.573Z,18.80
2023-02-14T04:11:00.045Z,17.40
2023-02-14T04:11:59.583Z,22.50
2023-02-14T04:12:59.544Z,30.60
2023-02-14T04:13:59.538Z,25.90
2023-02-14T04:14:59.536Z,27.20
2023-02-14T04:15:59.569Z,26.60
2023-02-14T04:16:59.544Z,23.90
2023-02-14T04:17:59.528Z,22.00
2023-02-14T04:18:59.538Z,21.20
2023-02-14T04:19:59.579Z,29.40
2023-02-14T04:20:59.801Z,27.00
2023-02-14T04:21:59.533Z,29.70
2023-02-14T04:23:00.545Z,25.80
2023-02-14T04:23:59.465Z,22.10
2023-02-14T04:24:59.481Z,24.90
2023-02-14T04:25:59.459Z,24.30
2023-02-14T04:26:59.479Z,21.50
2023-02-14T04:27:59.450Z,19.70
2023-02-14T04:28:59.533Z,25.10
2023-02-14T04:29:59.446Z,17.90
2023-02-14T04:30:59.976Z,20.80
2023-02-14T04:31:59.524Z,19.60
2023-02-14T04:32:59.393Z,19.20
2023-02-14T04:33:59.384Z,17.40
2023-02-14T04:34:59.381Z,17.90
2023-02-14T04:35:59.368Z,17.70
2023-02-14T04:36:59.362Z,19.40
2023-02-14T04:37:59.405Z,18.60
2023-02-14T04:38:59.347Z,19.00
2023-02-14T04:39:59.544Z,18.90
2023-02-14T04:40:59.678Z,18.00
2023-02-14T04:41:59.321Z,18.10
2023-02-14T04:42:59.336Z,17.60
2023-02-14T04:43:59.308Z,18.10
2023-02-14T04:44:59.296Z,26.80
2023-02-14T04:45:59.296Z,24.30
2023-02-14T04:46:59.298Z,30.70
2023-02-14T04:47:59.356Z,27.60
2023-02-14T04:48:59.267Z,25.60
2023-02-14T04:49:59.266Z,21.70
2023-02-14T04:50:59.607Z,25.00
2023-02-14T04:51:59.252Z,30.50
2023-02-14T04:52:59.271Z,28.00
2023-02-14T04:53:59.228Z,25.20
2023-02-14T04:54:59.222Z,25.10
2023-02-14T04:55:59.210Z,24.30
2023-02-14T04:56:59.205Z,27.60
2023-02-14T04:57:59.226Z,31.10
2023-02-14T04:58:59.217Z,29.80
2023-02-14T04:59:59.191Z,32.20
2023-02-14T05:00:59.530Z,27.80
2023-02-14T05:01:59.238Z,27.60
2023-02-14T05:02:59.193Z,28.70
2023-02-14T05:03:59.180Z,25.20
2023-02-14T05:04:59.133Z,26.10
2023-02-14T05:06:00.141Z,26.70
2023-02-14T05:06:59.130Z,27.60
2023-02-14T05:07:59.318Z,30.60
2023-02-14T05:08:59.116Z,40.70
2023-02-14T05:09:59.110Z,44.70
2023-02-14T05:10:59.548Z,41.80
2023-02-14T05:11:59.106Z,40.20
2023-02-14T05:12:59.135Z,35.30
2023-02-14T05:14:31.599Z,39.90
2023-02-14T05:14:59.063Z,40.10
2023-02-14T05:15:59.113Z,34.30
2023-02-14T05:16:59.058Z,31.10
2023-02-14T05:17:59.070Z,31.50
2023-02-14T05:18:59.043Z,38.10
2023-02-14T05:19:59.036Z,37.70
2023-02-14T05:20:59.311Z,42.50
2023-02-14T05:21:59.023Z,33.00
2023-02-14T05:22:59.049Z,35.30
2023-02-14T05:23:59.000Z,31.60
2023-02-14T05:24:58.995Z,32.70
2023-02-14T05:25:58.986Z,32.00
2023-02-14T05:26:58.979Z,33.90
2023-02-14T05:27:58.988Z,34.50
2023-02-14T05:28:58.958Z,36.80
2023-02-14T05:29:58.994Z,31.50
2023-02-14T05:30:59.366Z,32.90
2023-02-14T05:31:59.983Z,30.10
2023-02-14T05:32:58.923Z,32.80
2023-02-14T05:33:58.971Z,31.20
2023-02-14T05:35:00.964Z,30.50
2023-02-14T05:35:59.913Z,31.30
2023-02-14T05:36:58.884Z,31.40
2023-02-14T05:37:59.885Z,32.60
2023-02-14T05:38:58.909Z,30.50
2023-02-14T05:39:58.871Z,35.80
2023-02-14T05:40:59.240Z,37.80
2023-02-14T05:41:59.441Z,31.80
2023-02-14T05:42:59.845Z,45.80
2023-02-14T05:43:58.859Z,31.20
2023-02-14T05:44:58.836Z,31.00
2023-02-14T05:45:58.896Z,27.90
2023-02-14T05:46:58.820Z,32.40
2023-02-14T05:47:58.808Z,32.80
2023-02-14T05:48:58.823Z,30.90
2023-02-14T05:49:58.796Z,27.60
2023-02-14T05:50:59.049Z,27.00
2023-02-14T05:51:58.780Z,21.80
2023-02-14T05:52:58.780Z,26.20
2023-02-14T05:53:59.057Z,22.50
2023-02-14T05:54:58.754Z,24.60
2023-02-14T05:55:58.752Z,29.00
2023-02-14T05:56:58.743Z,41.00
2023-02-14T05:57:58.748Z,41.80
2023-02-14T05:58:58.749Z,28.30
2023-02-14T05:59:58.716Z,25.50
2023-02-14T06:00:59.044Z,32.10
2023-02-14T06:01:58.720Z,42.20
2023-02-14T06:02:58.697Z,36.80
2023-02-14T06:03:58.717Z,34.80
2023-02-14T06:04:58.696Z,36.20
2023-02-14T06:05:58.669Z,33.40
2023-02-14T06:06:58.672Z,40.70
2023-02-14T06:07:59.609Z,49.70
2023-02-14T06:08:58.675Z,39.10
2023-02-14T06:09:58.648Z,41.90
2023-02-14T06:10:59.039Z,41.90
2023-02-14T06:11:58.681Z,51.00
2023-02-14T06:12:58.629Z,44.30
2023-02-14T06:13:58.713Z,51.40
2023-02-14T06:14:58.610Z,42.40
2023-02-14T06:15:58.604Z,37.00
2023-02-14T06:16:59.337Z,34.90
2023-02-14T06:17:58.581Z,56.80
2023-02-14T06:18:58.615Z,32.70
2023-02-14T06:19:58.568Z,33.00
2023-02-14T06:20:58.926Z,41.00
2023-02-14T06:21:58.565Z,53.30
2023-02-14T06:22:58.557Z,35.80
2023-02-14T06:23:58.538Z,40.40
2023-02-14T06:24:58.563Z,40.90
2023-02-14T06:25:58.528Z,40.30
2023-02-14T06:26:58.518Z,34.80
2023-02-14T06:27:58.529Z,35.10
2023-02-14T06:28:58.513Z,39.30
2023-02-14T06:29:58.558Z,36.90
2023-02-14T06:30:58.949Z,40.10
2023-02-14T06:31:58.613Z,43.30
2023-02-14T06:32:58.496Z,47.80
2023-02-14T06:33:58.466Z,48.80
2023-02-14T06:34:58.482Z,40.50
2023-02-14T06:35:58.454Z,44.30
2023-02-14T06:36:58.442Z,40.20
2023-02-14T06:37:58.435Z,37.30
2023-02-14T06:38:58.435Z,39.70
2023-02-14T06:39:58.780Z,40.20
2023-02-14T06:41:00.576Z,39.30
2023-02-14T06:41:59.406Z,39.30
2023-02-14T06:42:58.418Z,40.10
2023-02-14T06:43:58.546Z,37.20
2023-02-14T06:44:58.412Z,36.80
2023-02-14T06:45:58.398Z,41.80
2023-02-14T06:46:58.363Z,35.60
2023-02-14T06:47:58.361Z,39.00
2023-02-14T06:48:58.361Z,37.40
2023-02-14T06:49:58.375Z,35.80
2023-02-14T06:50:58.688Z,36.80
2023-02-14T06:51:58.330Z,34.40
2023-02-14T06:52:58.331Z,38.80
2023-02-14T06:53:58.335Z,42.10
2023-02-14T06:54:58.334Z,46.30
2023-02-14T06:55:58.323Z,32.90
2023-02-14T06:56:58.286Z,33.20
2023-02-14T06:57:58.304Z,31.20
2023-02-14T06:58:58.336Z,34.20
2023-02-14T06:59:58.326Z,34.20
2023-02-14T07:00:58.605Z,31.50
2023-02-14T07:01:58.267Z,35.80
2023-02-14T07:02:58.294Z,31.80
2023-02-14T07:03:58.277Z,33.90
2023-02-14T07:04:58.259Z,32.40
2023-02-14T07:05:58.256Z,35.30
2023-02-14T07:06:58.218Z,36.60
2023-02-14T07:07:59.028Z,31.60
2023-02-14T07:08:58.195Z,34.60
2023-02-14T07:09:58.241Z,41.10
2023-02-14T07:10:58.849Z,38.10
2023-02-14T07:11:59.273Z,39.80
2023-02-14T07:12:58.175Z,32.20
2023-02-14T07:13:58.155Z,30.00
2023-02-14T07:14:58.205Z,32.50
2023-02-14T07:15:58.192Z,30.60
2023-02-14T07:16:58.134Z,35.70
2023-02-14T07:17:58.127Z,31.40
2023-02-14T07:18:58.139Z,33.70
2023-02-14T07:19:58.144Z,31.70
2023-02-14T07:20:58.664Z,31.30
2023-02-14T07:21:58.112Z,30.60
2023-02-14T07:22:58.094Z,33.70
2023-02-14T07:23:58.086Z,29.00
2023-02-14T07:24:58.103Z,27.80
2023-02-14T07:25:58.074Z,29.30
2023-02-14T07:26:58.054Z,30.40
2023-02-14T07:27:58.049Z,29.40
2023-02-14T07:28:58.046Z,29.40
2023-02-14T07:29:58.086Z,26.30
2023-02-14T07:30:58.477Z,29.70
2023-02-14T07:31:58.333Z,27.90
2023-02-14T07:32:58.014Z,34.30
2023-02-14T07:33:58.013Z,28.40
2023-02-14T07:34:58.029Z,29.00
2023-02-14T07:35:57.999Z,33.50
2023-02-14T07:36:57.985Z,33.40
2023-02-14T07:37:58.000Z,29.30
2023-02-14T07:38:57.971Z,28.60
2023-02-14T07:39:57.955Z,30.00
2023-02-14T07:40:58.261Z,29.80
2023-02-14T07:41:57.948Z,31.60
2023-02-14T07:42:57.943Z,37.10
2023-02-14T07:43:57.940Z,29.40
2023-02-14T07:44:57.924Z,30.60
2023-02-14T07:45:58.013Z,31.60
2023-02-14T07:46:57.929Z,29.50
2023-02-14T07:47:57.908Z,30.30
2023-02-14T07:48:57.918Z,34.60
2023-02-14T07:49:57.888Z,32.80
2023-02-14T07:50:58.463Z,31.30
2023-02-14T07:51:57.894Z,32.90
2023-02-14T07:52:57.860Z,30.00
2023-02-14T07:53:57.899Z,28.40
2023-02-14T07:54:57.859Z,29.40
2023-02-14T07:55:57.886Z,33.50
2023-02-14T07:56:57.841Z,36.30
2023-02-14T07:57:57.831Z,30.40
2023-02-14T07:58:57.821Z,36.00
2023-02-14T07:59:57.807Z,28.10
2023-02-14T08:00:58.288Z,29.50
2023-02-14T08:01:57.843Z,27.80
2023-02-14T08:02:57.784Z,27.10
2023-02-14T08:03:57.810Z,26.80
2023-02-14T08:04:57.807Z,28.00
2023-02-14T08:05:57.806Z,32.30
2023-02-14T08:06:57.752Z,42.90
2023-02-14T08:07:57.764Z,37.50
2023-02-14T08:08:57.743Z,38.30
2023-02-14T08:09:57.754Z,29.20
2023-02-14T08:10:58.030Z,37.20
2023-02-14T08:11:57.726Z,32.80
2023-02-14T08:12:57.716Z,37.50
2023-02-14T08:13:57.707Z,38.60
2023-02-14T08:14:57.692Z,48.00
2023-02-14T08:15:57.747Z,37.40
2023-02-14T08:16:57.676Z,41.00
2023-02-14T08:17:57.673Z,36.50
2023-02-14T08:18:57.653Z,35.40
2023-02-14T08:19:57.670Z,35.00
2023-02-14T08:20:57.949Z,32.00
2023-02-14T08:21:57.631Z,33.70
2023-02-14T08:22:57.638Z,29.40
2023-02-14T08:23:57.640Z,31.20
2023-02-14T08:24:57.615Z,30.00
2023-02-14T08:25:57.631Z,30.30
2023-02-14T08:26:57.600Z,33.50
2023-02-14T08:27:57.609Z,32.10
2023-02-14T08:28:57.587Z,34.90
2023-02-14T08:29:57.596Z,33.70
2023-02-14T08:30:58.763Z,31.70
2023-02-14T08:31:57.788Z,28.50
2023-02-14T08:32:57.622Z,31.50
2023-02-14T08:33:57.544Z,31.00
2023-02-14T08:34:57.540Z,25.10
2023-02-14T08:35:57.555Z,31.50
2023-02-14T08:36:57.520Z,30.60
2023-02-14T08:37:58.542Z,30.30
2023-02-14T08:38:57.502Z,27.90
2023-02-14T08:39:57.609Z,30.90
2023-02-14T08:40:57.748Z,25.20
2023-02-14T08:41:57.481Z,24.80
2023-02-14T08:42:57.498Z,26.10
2023-02-14T08:43:57.463Z,28.00
2023-02-14T08:44:57.461Z,28.30
2023-02-14T08:45:57.642Z,27.00
2023-02-14T08:46:57.523Z,30.80
2023-02-14T08:47:57.429Z,27.50
2023-02-14T08:48:57.426Z,24.90
2023-02-14T08:49:57.438Z,29.20
2023-02-14T08:50:57.748Z,22.70
2023-02-14T08:51:57.475Z,24.40
2023-02-14T08:52:57.429Z,26.40
2023-02-14T08:53:57.405Z,24.60
2023-02-14T08:54:57.392Z,24.10
2023-02-14T08:55:57.492Z,24.60
2023-02-14T08:56:57.373Z,24.40
2023-02-14T08:57:57.368Z,26.10
2023-02-14T08:58:57.350Z,23.50
2023-02-14T08:59:57.338Z,23.80
2023-02-14T09:00:57.462Z,24.50
2023-02-14T09:01:57.357Z,25.00
2023-02-14T09:02:58.254Z,24.40
2023-02-14T09:03:57.345Z,27.00
2023-02-14T09:04:57.306Z,28.30
2023-02-14T09:05:57.297Z,27.40
2023-02-14T09:06:57.326Z,26.30
2023-02-14T09:07:57.488Z,25.20
2023-02-14T09:08:57.322Z,24.60
2023-02-14T09:09:57.260Z,25.80
2023-02-14T09:10:57.252Z,27.50
2023-02-14T09:11:57.278Z,28.20
2023-02-14T09:12:57.243Z,28.20
2023-02-14T09:13:57.246Z,27.10
2023-02-14T09:14:57.234Z,25.70
2023-02-14T09:15:57.269Z,26.30
2023-02-14T09:16:57.287Z,24.10
2023-02-14T09:17:57.216Z,28.50
2023-02-14T09:18:57.243Z,26.40
2023-02-14T09:19:57.188Z,31.00
2023-02-14T09:20:57.411Z,27.60
2023-02-14T09:21:57.241Z,28.00
2023-02-14T09:22:57.165Z,28.00
2023-02-14T09:23:57.154Z,24.90
2023-02-14T09:24:57.155Z,23.80
2023-02-14T09:25:57.756Z,27.20
2023-02-14T09:26:57.156Z,26.90
2023-02-14T09:27:57.144Z,25.10
2023-02-14T09:28:57.121Z,26.30
2023-02-14T09:29:57.165Z,25.00
2023-02-14T09:30:57.281Z,22.80
2023-02-14T09:31:57.242Z,24.10
2023-02-14T09:32:57.110Z,27.00
2023-02-14T09:33:57.094Z,24.80
2023-02-14T09:34:57.084Z,25.30
2023-02-14T09:35:57.063Z,26.00
2023-02-14T09:36:57.096Z,25.00
2023-02-14T09:37:57.055Z,24.80
2023-02-14T09:38:57.052Z,25.40
2023-02-14T09:39:57.041Z,24.60
2023-02-14T09:40:57.083Z,25.30
2023-02-14T09:41:57.060Z,28.00
2023-02-14T09:42:57.012Z,24.70
2023-02-14T09:43:57.062Z,26.70
2023-02-14T09:44:57.104Z,25.90
2023-02-14T09:45:57.100Z,25.30
2023-02-14T09:46:57.050Z,25.40
2023-02-14T09:47:56.978Z,26.30
2023-02-14T09:48:57.003Z,28.30
2023-02-14T09:49:56.989Z,24.40
2023-02-14T09:50:57.301Z,26.90
2023-02-14T09:51:57.972Z,25.40
2023-02-14T09:52:56.947Z,24.30
2023-02-14T09:53:57.637Z,27.00
2023-02-14T09:54:56.940Z,28.80
2023-02-14T09:55:56.926Z,26.40
2023-02-14T09:56:56.943Z,25.70
2023-02-14T09:57:56.907Z,24.90
2023-02-14T09:58:56.893Z,24.70
2023-02-14T09:59:56.888Z,24.20
2023-02-14T10:00:57.083Z,24.20
2023-02-14T10:01:56.975Z,23.10
2023-02-14T10:02:56.898Z,23.20
2023-02-14T10:03:56.864Z,23.10
2023-02-14T10:04:56.851Z,22.90
2023-02-14T10:05:56.839Z,23.90
2023-02-14T10:06:56.909Z,24.30
2023-02-14T10:07:56.827Z,24.10
2023-02-14T10:08:56.817Z,24.50
2023-02-14T10:09:56.835Z,24.00
2023-02-14T10:10:56.814Z,25.40
2023-02-14T10:11:56.830Z,26.30
2023-02-14T10:12:56.799Z,32.60
2023-02-14T10:13:56.786Z,28.00
2023-02-14T10:14:56.784Z,26.30
2023-02-14T10:15:56.768Z,23.20
2023-02-14T10:16:56.822Z,22.50
2023-02-14T10:17:56.826Z,23.70
2023-02-14T10:18:56.756Z,23.50
2023-02-14T10:19:56.749Z,22.30
2023-02-14T10:20:56.741Z,22.00
2023-02-14T10:21:56.737Z,21.30
2023-02-14T10:22:56.761Z,21.00
2023-02-14T10:23:56.723Z,20.80
2023-02-14T10:24:56.743Z,21.70
2023-02-14T10:25:56.731Z,20.70
2023-02-14T10:26:56.692Z,22.40
2023-02-14T10:27:56.712Z,20.70
2023-02-14T10:28:56.687Z,21.10
2023-02-14T10:29:56.710Z,19.80
2023-02-14T10:30:56.747Z,20.20
2023-02-14T10:31:56.721Z,19.70
2023-02-14T10:32:56.678Z,19.60
2023-02-14T10:33:57.885Z,20.10
2023-02-14T10:34:57.636Z,20.00
2023-02-14T10:35:56.627Z,18.90
2023-02-14T10:36:56.631Z,19.00
2023-02-14T10:37:56.640Z,19.10
2023-02-14T10:38:56.633Z,19.60
2023-02-14T10:39:56.609Z,19.20
2023-02-14T10:40:56.592Z,20.40
2023-02-14T10:41:56.607Z,20.70
2023-02-14T10:42:56.609Z,21.20
2023-02-14T10:43:56.581Z,21.40
2023-02-14T10:44:56.577Z,21.90
2023-02-14T10:45:56.600Z,21.00
2023-02-14T10:46:56.549Z,20.10
2023-02-14T10:47:56.567Z,20.80
2023-02-14T10:48:56.544Z,20.90
2023-02-14T10:49:56.521Z,22.20
2023-02-14T10:50:56.514Z,20.90
2023-02-14T10:51:56.527Z,20.90
2023-02-14T10:52:56.532Z,21.50
2023-02-14T10:53:56.483Z,19.50
2023-02-14T10:54:56.488Z,19.00
2023-02-14T10:55:56.482Z,19.30
2023-02-14T10:56:58.401Z,18.70
2023-02-14T10:57:57.496Z,17.10
2023-02-14T10:58:56.467Z,18.50
2023-02-14T10:59:56.469Z,18.70
2023-02-14T11:00:56.462Z,18.00
2023-02-14T11:01:56.435Z,18.80
2023-02-14T11:02:56.620Z,18.70
2023-02-14T11:03:56.499Z,17.70
2023-02-14T11:04:56.398Z,17.60
2023-02-14T11:05:56.414Z,17.60
2023-02-14T11:06:56.388Z,18.50
2023-02-14T11:07:56.406Z,19.00
2023-02-14T11:08:57.453Z,18.10
2023-02-14T11:09:57.375Z,19.70
2023-02-14T11:10:56.360Z,19.90
2023-02-14T11:11:56.359Z,20.20
2023-02-14T11:12:56.383Z,19.90
2023-02-14T11:14:29.204Z,20.30
2023-02-14T11:14:56.326Z,19.40
2023-02-14T11:15:56.317Z,21.00
2023-02-14T11:16:56.345Z,18.90
2023-02-14T11:17:56.339Z,19.20
2023-02-14T11:18:56.331Z,18.30
2023-02-14T11:19:56.292Z,19.10
2023-02-14T11:20:56.331Z,18.10
2023-02-14T11:21:56.292Z,20.20
2023-02-14T11:22:56.345Z,19.50
2023-02-14T11:23:56.290Z,19.30
2023-02-14T11:24:56.281Z,22.30
2023-02-14T11:25:56.388Z,20.90
2023-02-14T11:26:56.246Z,18.70
2023-02-14T11:27:56.603Z,21.30
2023-02-14T11:28:56.236Z,21.10
2023-02-14T11:29:56.253Z,21.90
2023-02-14T11:30:56.333Z,24.00
2023-02-14T11:31:56.263Z,21.40
2023-02-14T11:32:56.416Z,20.60
2023-02-14T11:33:56.216Z,19.50
2023-02-14T11:34:56.184Z,19.50
2023-02-14T11:35:56.177Z,18.10
2023-02-14T11:36:56.200Z,18.10
2023-02-14T11:37:56.205Z,18.70
2023-02-14T11:38:56.155Z,18.00
2023-02-14T11:39:56.689Z,18.30
2023-02-14T11:40:56.136Z,18.50
2023-02-14T11:41:57.131Z,17.90
2023-02-14T11:43:12.881Z,18.00
2023-02-14T11:43:58.129Z,17.70
2023-02-14T11:44:56.118Z,17.90
2023-02-14T11:45:56.133Z,17.10
2023-02-14T11:46:56.101Z,17.70
2023-02-14T11:47:56.123Z,19.00
2023-02-14T11:48:56.132Z,19.10
2023-02-14T11:49:56.074Z,18.80
2023-02-14T11:50:56.139Z,18.20
2023-02-14T11:51:56.067Z,17.10
2023-02-14T11:52:56.045Z,18.80
2023-02-14T11:53:56.063Z,19.60
2023-02-14T11:54:56.025Z,20.30
2023-02-14T11:55:56.013Z,19.80
2023-02-14T11:56:56.006Z,19.10
2023-02-14T11:57:56.048Z,18.30
2023-02-14T11:58:56.025Z,17.80
2023-02-14T11:59:55.997Z,18.90
2023-02-14T12:00:56.022Z,18.20
2023-02-14T12:01:56.006Z,18.30
2023-02-14T12:02:55.976Z,20.30
2023-02-14T12:03:56.030Z,18.40
2023-02-14T12:04:55.954Z,18.00
2023-02-14T12:05:55.940Z,17.90
2023-02-14T12:06:55.944Z,18.00
2023-02-14T12:07:55.930Z,17.90
2023-02-14T12:08:56.292Z,18.00
2023-02-14T12:09:55.916Z,17.30
2023-02-14T12:10:55.911Z,17.40
2023-02-14T12:11:56.915Z,18.70
2023-02-14T12:12:55.890Z,19.20
2023-02-14T12:13:55.919Z,23.50
2023-02-14T12:14:55.993Z,24.20
2023-02-14T12:15:55.939Z,25.90
2023-02-14T12:16:55.862Z,22.70
2023-02-14T12:17:55.853Z,23.70
2023-02-14T12:18:55.885Z,17.70
2023-02-14T12:19:55.842Z,17.10
2023-02-14T12:20:55.861Z,19.80
2023-02-14T12:21:55.820Z,19.40
2023-02-14T12:22:55.817Z,18.00
2023-02-14T12:23:55.956Z,18.00
2023-02-14T12:24:55.797Z,19.30
2023-02-14T12:25:55.822Z,19.90
2023-02-14T12:26:56.898Z,19.00
2023-02-14T12:27:55.789Z,19.30
2023-02-14T12:28:55.811Z,22.90
2023-02-14T12:29:55.797Z,34.40
2023-02-14T12:30:55.826Z,25.80
2023-02-14T12:31:55.810Z,23.70
2023-02-14T12:32:55.739Z,21.10
2023-02-14T12:33:55.761Z,21.00
2023-02-14T12:34:55.710Z,19.60
2023-02-14T12:35:55.712Z,20.10
2023-02-14T12:36:55.701Z,18.70
2023-02-14T12:38:03.944Z,18.40
2023-02-14T12:38:57.707Z,16.90
2023-02-14T12:39:55.685Z,16.60
2023-02-14T12:40:55.663Z,18.40
2023-02-14T12:41:55.658Z,18.50
2023-02-14T12:42:55.657Z,17.40
2023-02-14T12:43:55.652Z,16.90
2023-02-14T12:44:55.689Z,17.40
2023-02-14T12:45:55.637Z,17.40
2023-02-14T12:46:55.636Z,18.20
2023-02-14T12:47:55.614Z,18.20
2023-02-14T12:48:55.709Z,19.20
2023-02-14T12:49:55.635Z,17.50
2023-02-14T12:50:55.626Z,17.90
2023-02-14T12:51:55.587Z,18.00